Aviation Digital Data Service (ADDS)

Output produced by METARs form (2339 UTC 25 February 2018)
found at http://www.aviationweather.gov/adds/metars/
 
SMJP 252300Z 08003KT 9999 SCT020 25/22 Q1011 NOSIG
TAF SMJP 252200Z 2600/2624 04005KT CAVOK TX30/2618Z TN22/2610Z 
     PROB30 
     TEMPO 2609/2610 00000KT 2000 BR SCT002 
     BECMG 2611/2613 06008KT SCT020 
     FM262200 03005KT CAVOK